Guadalupe Mtns National Park, TX

2:50 AM MDT on August 27, 2014 (GMT -0600)
APRSWXNET Salt Flat TX US | Change Station
CLOSE
Current Station
Personal Weather Station
Location: Salt Flat, TX
Elevation: 3681 ft
Nearby Weather Stations
Active Advisory: Flash Flood Watch

Elev 3681 ft 31.84 °N, 104.96 °W | Updated 47 minutes ago

Mostly Cloudy
Mostly Cloudy
71 °F
Feels Like 73 °F
N
0
Wind Variable Wind from NNE
Gusts 0.0 mph

Today
High -- | Low -- °F
--% Chance of Precip.
Yesterday
High -- | Low -- °F
Precip. -- in
6:32 AM 7:30 PM
Waxing Crescent, 3% visible
Pressure 30.00 in
Visibility 10.0 miles
Clouds Scattered Clouds 8500 ft
Overcast 11000 ft
Heat Index 73 °F
Dew Point 63 °F
Humidity 75%
Rainfall 0.01 in
Snow Depth Not available.
UV 0 out of 12
Pollen 8.50 out of 12
Air Quality Not available.
Flu Activity Not available.
METAR KGDP 270751Z AUTO 20005KT 10SM SCT085 OVC110 21/14 A3027 RMK AO2 RAE0653 SLP159 P0000 T02110139

More Conditions Fewer Conditions

Pressure 30.00 in
Visibility 10.0 miles
Clouds Scattered Clouds 8500 ft
Overcast 11000 ft
Heat Index 73 °F
Dew Point 63 °F
Humidity 75%
Rainfall 0.01 in
Snow Depth Not available.
UV 0 out of 12
Pollen 8.50 out of 12
Air Quality Not available.
Flu Activity Not available.
METAR KGDP 270751Z AUTO 20005KT 10SM SCT085 OVC110 21/14 A3027 RMK AO2 RAE0653 SLP159 P0000 T02110139

More Conditions Fewer Conditions

10-Day Weather Forecast

Almanac

Astronomy

Aug. 27, 2014 Rise Set
Actual Time 6:32 AM MDT 7:30 PM MDT
Civil Twilight 6:07 AM MDT 7:55 PM MDT
Nautical Twilight 5:38 AM MDT 8:24 PM MDT
Astronomical Twilight 5:07 AM MDT 8:55 PM MDT
Moon 8:21 AM MDT 8:35 PM MDT
Length of Visible Light 13h 47m
Length of Day
12h 57m
Tomorrow will be 1m 49s shorter.
Waxing Crescent, 3% of the Moon is Illuminated
Today
Waxing Crescent
Sep 2
First Quarter
Sep 8
Full
Sep 15
Last Quarter
Sep 24
New

Today's Extremes

State Highs State Lows

Community

WunderPhotos

Upload Photos

1,747,657 photos uploaded!

Nearby

Snow Depth

Station Depth Elevation
No new snow has been reported.

Earthquake Activity

City Distance Mag. Time & Date
No recent earthquake activity has been reported nearby.
Minimum magnitude displayed is 2.5.

Coastal Water Temperatures

Place Temperature
No Stations Reporting

Nearby Weather Stations